Ride Results

2008 Far-A-Way EEC Saturday (22-03-2008)
Ride distance: 84.0 km

Outcomes - 2008 Far-A-Way EEC Saturday (22-03-2008)
Division No. of Entries Retired / DNE Completed Withdrawn Ineligible V/O Percentage Completed
HW 8 - 6 - - 2 75.00%
MW 18 - 15 - - 3 83.33%
LW 17 - 16 - - 1 94.12%
JN 4 - 4 - - - 100.00%
Totals 47 - 41 - - 6 87.23%
Results - 2008 Far-A-Way EEC Saturday (22-03-2008)
No. Rider Horse Place Time Leg Speeds Total
Km/Hr
H/R bpm
Heavyweight
18 Mark Nimon Abbeywood Dallas 1 (BC) 5:22:00 18.1, 13.4 15.65 27, 43, 59 (Avg:51)
16 David Horton Eskdale Espirique 2 6:19:00 15.6, 11.2 13.30 31, 44, 60 (Avg:52)
34 Gerard Bou Country Gentleman 3 7:12:00 12.4, 10.8 11.67 43, 52, 55 (Avg:53)
15 Peter Casey Lagoon Hill Rapadash 4 7:32:00 12.4, 9.9 11.15 33, 40, 45 (Avg:42)
46 Michael Shaw Bellabin 5 7:33:00 12.3, 9.9 11.13 38, 52, 49 (Avg:50)
38 Peter Toft Electra BBP Murdoch 6 8:20:00 11.0, 9.1 10.08 34, 45, 47 (Avg:46)
17 David Anderson (DAD) Count Lea Heart Rate L2 0:00:00 19.4, 12.0 - 28, 46, 66 (Avg:56)
11 David Pembroke Rahim Whispah Heart Rate L2 0:00:00 13.2, 9.9 - 29, 42, 62 (Avg:52)
Middleweight
30 Brook Sample Brookleigh Casper 1 (BC) 4:16:00 19.0, 20.5 19.69 37, 49, 49 (Avg:49)
1 Fiona Fenech Atlas 2 4:18:00 19.3, 19.8 19.53 37, 44, 51 (Avg:47)
6 Ute Jordan Birru Avishaah 3 4:23:00 19.3, 18.9 19.16 33, 40, 43 (Avg:41)
19 Ken Moir Wizard of Oz 4 6:20:00 15.6, 11.1 13.26 36, 49, 59 (Avg:54)
40 Bridget Nottle Kitt 5 6:29:00 13.2, 12.5 12.96 33, 43, 46 (Avg:44)
42 Penny Toft Tora Blar-Zay 5 6:29:00 13.2, 12.5 12.96 32, 42, 57 (Avg:49)
33 Angela Head Dardanga Fingal 7 7:12:00 12.4, 10.8 11.67 34, 40, 44 (Avg:42)
12 Robyn Pembroke Mt Eerwah Nikita 8 7:17:00 13.2, 9.9 11.53 31, 40, 52 (Avg:46)
25 Adrian Brickley Siberia 9 7:46:00 11.4, 10.0 10.82 31, 55, 55 (Avg:55)
44 Helen Astell Alnotarj Zakov 10 7:47:00 11.5, 9.9 10.79 39, 49, 60 (Avg:54)
45 Sheleah Astell Aloha Kamahl 10 7:47:00 11.5, 9.9 10.79 34, 38, 48 (Avg:43)
13 Debbie Forsdike Bacchante Valentina 12 7:48:00 11.6, 9.8 10.77 37, 43, 48 (Avg:45)
29 Laura Axsentieff Brookleigh Commander 13 8:06:00 10.9, 9.7 10.37 36, 41, 45 (Avg:43)
28 Terri Anderson Brookleigh Charlie 14 8:36:00 10.9, 8.6 9.77 43, 46, 41 (Avg:43)
35 Robyn Dann Rhiannons Nimbi 15 9:47:00 11.1, 6.7 8.59 36, 48, 59 (Avg:53)
36 Colleen Shaw Mt Eerwah Shazaam Heart Rate L2 0:00:00 12.3, 9.9 - 35, 54, 62 (Avg:58)
32 Julie Kemp Kahlila Heart Rate L1 0:00:00 11.2 - 52, 68 (Avg:68)
14 Karen Weeden Claralee Silverdo Lame L1 0:00:00 15.2 - 45, 49 (Avg:49)
Lightweight
31 Jeanna Maher Red Gum Trinket 1 (BC) 5:16:00 19.3, 13.1 15.95 34, 48, 51 (Avg:49)
23 Sue Sutcliffe Saayid's Simply Red 1 5:16:00 18.3, 13.7 15.95 31, 40, 51 (Avg:45)
4 Karen Fields Jayhal Shah 3 5:43:00 15.6, 13.6 14.69 34, 42, 52 (Avg:47)
5 Sasha Laws-King Tubbarubba Cheval 4 6:09:00 14.1, 13.1 13.66 41, 46, 54 (Avg:50)
2 Amaya Thomas Kilkivan Msalute 5 6:12:00 13.5, 13.4 13.55 42, 56 (Avg:49)
9 Anne Jones Tongarra Red Cloud 6 6:19:00 15.6, 11.2 13.30 34, 39, 53 (Avg:46)
7 Cindy Harris Zanabah Park Shylock 7 6:21:00 14.0, 12.3 13.23 36, 45, 49 (Avg:47)
21 Shelley-ann Kimber Bacchante Banjo 8 7:38:00 10.7, 11.3 11.00 34, 39, 43 (Avg:41)
20 Katherine Ryan Leopard 8 7:38:00 10.7, 11.3 11.00 36, 47, 46 (Avg:46)
27 Bobbi Lochtenberg Matta Mia Safir 10 7:43:00 11.2, 10.4 10.89 44, 47 (Avg:45)
43 Angie Clark Sunhaven Brooklyn 11 7:46:00 11.2, 10.3 10.82 31, 41, 43 (Avg:42)
8 Linda Meredith Anglesea Trafford 11 7:46:00 11.4, 10.0 10.82 43, 44, 47 (Avg:45)
47 Sally Genninges Chazar Bandana 13 7:48:00 11.4, 10.0 10.77 38, 46, 45 (Avg:45)
22 Kaylea Maher Bacchante Casablanca 14 7:58:00 10.8, 10.1 10.54 36, 51, 44 (Avg:47)
41 Brooke Warner Dakila Pascalle 15 8:20:00 11.0, 9.1 10.08 39, 41, 46 (Avg:43)
26 Karen Mendoza Allyndah Expectation 16 8:46:00 10.2, 8.8 9.58 38, 52, 59 (Avg:55)
10 Carla Jones Mt Eerwah Anastazia Metabolics L1 0:00:00 29.0 - 30, 39 (Avg:39)
Junior
37 Georgia Toft Blue Bronco 1 7:46:00 11.0, 10.5 10.82 34, 44, 55 (Avg:49)
39 Alexandra Toft Bramall Jazzmin 1 7:46:00 11.0, 10.5 10.82 28, 39, 45 (Avg:42)
3 Lainie Zischke Glenewan Sprite 3 (BC) 7:58:00 10.5, 10.5 10.54 40, 48, 48 (Avg:48)
24 Timothy Sutcliffe Talbarear Rapier 4 8:32:00 10.2, 9.3 9.84 38, 40, 55 (Avg:47)